North Caldwell, New Jersey
Current Conditions -  °F | °C
As of 10:53 AM on Saturday 25 Oct 2014 (Local Time) from KCDW Reporting Station
Clear Clear  
Wind Chill: 59°   Ceiling: Unl
Heat Index: 59°   Visibility: 10mi
Dew Point: 39°   Wind: 6mph
Humidity: 48%   Direction: 250°WSW
Pressure: 29.85"   Gusts: NA
Location:  40.852°N, 74.2818°W
Report Text: KCDW 251453Z 25005KT 10SM CLR 15/04 A2985 RMK AO2 SLP113 T01500039 56012
Loading
Personal Weather Stations






























Interactive Weather Map
Tropical Storm Tracking
New forecast layout! Learn more

10-Day Weather Forecast

Advertisements
Track Severe Weather on mobile